Kensington, Connecticut
Current Conditions -  °F | °C
As of 4:19 AM on Monday 24 Nov 2014 (Local Time) from KMMK Reporting Station
Moderate Rain Moderate Rain  
Wind Chill: 52°   Ceiling: 1000
Heat Index: 52°   Visibility: 2mi
Dew Point: 50°   Wind: 9mph
Humidity: 93%   Direction: 130°SE
Pressure: 29.84"   Gusts: NA
Location:  41.63°N, 72.77°W
Report Text: KMMK 240919Z AUTO 13008KT 2SM RA BR BKN010 OVC015 11/10 A2984 RMK AO2 PRESFR P0008 T01110100 TSNO $
Loading
Personal Weather Stations






























Interactive Weather Map New forecast layout! Learn more

10-Day Weather Forecast

Advertisements
Track Severe Weather on mobile